sensor_id;sensor_type;location;lat;lon;timestamp;temperature;humidity
4374;DHT22;2201;51.100;6.814;2023-07-31T00:00:52;17.60;98.20
4374;DHT22;2201;51.100;6.814;2023-07-31T00:03:19;17.60;98.20
4374;DHT22;2201;51.100;6.814;2023-07-31T00:05:46;17.60;98.20
4374;DHT22;2201;51.100;6.814;2023-07-31T00:08:13;17.60;98.20
4374;DHT22;2201;51.100;6.814;2023-07-31T00:10:39;17.60;98.20
4374;DHT22;2201;51.100;6.814;2023-07-31T00:13:06;17.60;98.20
4374;DHT22;2201;51.100;6.814;2023-07-31T00:15:33;17.60;98.20
4374;DHT22;2201;51.100;6.814;2023-07-31T00:18:02;17.60;98.20
4374;DHT22;2201;51.100;6.814;2023-07-31T00:20:29;17.60;98.20
4374;DHT22;2201;51.100;6.814;2023-07-31T00:22:56;17.60;98.20
4374;DHT22;2201;51.100;6.814;2023-07-31T00:25:23;17.60;98.20
4374;DHT22;2201;51.100;6.814;2023-07-31T00:27:50;17.60;98.20
4374;DHT22;2201;51.100;6.814;2023-07-31T00:30:17;17.60;98.20
4374;DHT22;2201;51.100;6.814;2023-07-31T00:32:43;17.70;98.20
4374;DHT22;2201;51.100;6.814;2023-07-31T00:35:12;17.70;98.20
4374;DHT22;2201;51.100;6.814;2023-07-31T00:37:39;17.70;98.20
4374;DHT22;2201;51.100;6.814;2023-07-31T00:40:07;17.70;98.20
4374;DHT22;2201;51.100;6.814;2023-07-31T00:42:34;17.70;98.20
4374;DHT22;2201;51.100;6.814;2023-07-31T00:45:01;17.70;98.20
4374;DHT22;2201;51.100;6.814;2023-07-31T00:47:28;17.70;98.20
4374;DHT22;2201;51.100;6.814;2023-07-31T00:49:55;17.70;98.20
4374;DHT22;2201;51.100;6.814;2023-07-31T00:52:24;17.70;98.20
4374;DHT22;2201;51.100;6.814;2023-07-31T00:54:51;17.70;98.20
4374;DHT22;2201;51.100;6.814;2023-07-31T00:57:17;17.70;98.20
4374;DHT22;2201;51.100;6.814;2023-07-31T00:59:44;17.70;98.20
4374;DHT22;2201;51.100;6.814;2023-07-31T01:02:12;17.70;98.20
4374;DHT22;2201;51.100;6.814;2023-07-31T01:04:39;17.70;98.20
4374;DHT22;2201;51.100;6.814;2023-07-31T01:07:11;17.70;98.20
4374;DHT22;2201;51.100;6.814;2023-07-31T01:09:45;17.70;98.20
4374;DHT22;2201;51.100;6.814;2023-07-31T01:12:15;17.80;98.20
4374;DHT22;2201;51.100;6.814;2023-07-31T01:14:51;17.80;98.20
4374;DHT22;2201;51.100;6.814;2023-07-31T01:17:18;17.70;98.20
4374;DHT22;2201;51.100;6.814;2023-07-31T01:19:45;17.70;98.20
4374;DHT22;2201;51.100;6.814;2023-07-31T01:22:29;17.70;98.20
4374;DHT22;2201;51.100;6.814;2023-07-31T01:25:10;17.80;98.20
4374;DHT22;2201;51.100;6.814;2023-07-31T01:27:44;17.70;98.20
4374;DHT22;2201;51.100;6.814;2023-07-31T01:30:16;17.70;98.20
4374;DHT22;2201;51.100;6.814;2023-07-31T01:32:46;17.80;98.20
4374;DHT22;2201;51.100;6.814;2023-07-31T01:35:14;17.70;98.20
4374;DHT22;2201;51.100;6.814;2023-07-31T01:37:41;17.70;98.20
4374;DHT22;2201;51.100;6.814;2023-07-31T01:40:08;17.70;98.20
4374;DHT22;2201;51.100;6.814;2023-07-31T01:42:35;17.70;98.20
4374;DHT22;2201;51.100;6.814;2023-07-31T01:45:05;17.70;98.20
4374;DHT22;2201;51.100;6.814;2023-07-31T01:47:32;17.70;98.20
4374;DHT22;2201;51.100;6.814;2023-07-31T01:49:58;17.70;98.20
4374;DHT22;2201;51.100;6.814;2023-07-31T01:52:25;17.70;98.20
4374;DHT22;2201;51.100;6.814;2023-07-31T01:54:52;17.70;98.20
4374;DHT22;2201;51.100;6.814;2023-07-31T01:57:19;17.80;98.20
4374;DHT22;2201;51.100;6.814;2023-07-31T01:59:45;17.80;98.20
4374;DHT22;2201;51.100;6.814;2023-07-31T02:02:14;17.80;98.20
4374;DHT22;2201;51.100;6.814;2023-07-31T02:04:40;17.80;98.20
4374;DHT22;2201;51.100;6.814;2023-07-31T02:07:07;17.80;98.20
4374;DHT22;2201;51.100;6.814;2023-07-31T02:09:34;17.80;98.20
4374;DHT22;2201;51.100;6.814;2023-07-31T02:12:01;17.80;98.20
4374;DHT22;2201;51.100;6.814;2023-07-31T02:14:33;17.80;98.20
4374;DHT22;2201;51.100;6.814;2023-07-31T02:17:00;17.80;98.20
4374;DHT22;2201;51.100;6.814;2023-07-31T02:19:28;17.80;98.20
4374;DHT22;2201;51.100;6.814;2023-07-31T02:21:55;17.80;98.20
4374;DHT22;2201;51.100;6.814;2023-07-31T02:24:22;17.80;98.20
4374;DHT22;2201;51.100;6.814;2023-07-31T02:26:49;17.80;98.20
4374;DHT22;2201;51.100;6.814;2023-07-31T02:29:16;17.80;98.20
4374;DHT22;2201;51.100;6.814;2023-07-31T02:31:43;17.80;98.20
4374;DHT22;2201;51.100;6.814;2023-07-31T02:34:10;17.80;98.20
4374;DHT22;2201;51.100;6.814;2023-07-31T02:36:38;17.80;98.20
4374;DHT22;2201;51.100;6.814;2023-07-31T02:39:04;17.90;98.20
4374;DHT22;2201;51.100;6.814;2023-07-31T02:41:31;17.90;98.20
4374;DHT22;2201;51.100;6.814;2023-07-31T02:43:58;17.90;98.20
4374;DHT22;2201;51.100;6.814;2023-07-31T02:46:25;17.90;98.20
4374;DHT22;2201;51.100;6.814;2023-07-31T02:48:51;17.90;98.20
4374;DHT22;2201;51.100;6.814;2023-07-31T02:51:18;17.90;98.20
4374;DHT22;2201;51.100;6.814;2023-07-31T02:53:48;17.90;98.20
4374;DHT22;2201;51.100;6.814;2023-07-31T02:56:15;17.90;98.20
4374;DHT22;2201;51.100;6.814;2023-07-31T02:58:41;17.90;98.20
4374;DHT22;2201;51.100;6.814;2023-07-31T03:01:08;17.90;98.20
4374;DHT22;2201;51.100;6.814;2023-07-31T03:03:35;18.00;98.20
4374;DHT22;2201;51.100;6.814;2023-07-31T03:06:02;18.00;98.20
4374;DHT22;2201;51.100;6.814;2023-07-31T03:08:28;18.00;98.20
4374;DHT22;2201;51.100;6.814;2023-07-31T03:10:58;18.00;98.20
4374;DHT22;2201;51.100;6.814;2023-07-31T03:13:25;18.00;98.20
4374;DHT22;2201;51.100;6.814;2023-07-31T03:15:51;18.00;98.20
4374;DHT22;2201;51.100;6.814;2023-07-31T03:18:18;18.00;98.20
4374;DHT22;2201;51.100;6.814;2023-07-31T03:20:45;18.00;98.20
4374;DHT22;2201;51.100;6.814;2023-07-31T03:23:12;18.00;98.20
4374;DHT22;2201;51.100;6.814;2023-07-31T03:25:39;18.00;98.20
4374;DHT22;2201;51.100;6.814;2023-07-31T03:28:07;18.00;98.20
4374;DHT22;2201;51.100;6.814;2023-07-31T03:30:36;18.10;98.20
4374;DHT22;2201;51.100;6.814;2023-07-31T03:33:03;18.10;98.20
4374;DHT22;2201;51.100;6.814;2023-07-31T03:35:30;18.10;98.20
4374;DHT22;2201;51.100;6.814;2023-07-31T03:37:57;18.00;98.20
4374;DHT22;2201;51.100;6.814;2023-07-31T03:40:23;18.10;98.20
4374;DHT22;2201;51.100;6.814;2023-07-31T03:42:50;18.00;98.20
4374;DHT22;2201;51.100;6.814;2023-07-31T03:45:18;18.00;98.20
4374;DHT22;2201;51.100;6.814;2023-07-31T03:47:45;18.00;98.20
4374;DHT22;2201;51.100;6.814;2023-07-31T03:50:12;18.00;98.20
4374;DHT22;2201;51.100;6.814;2023-07-31T03:52:38;18.00;98.20
4374;DHT22;2201;51.100;6.814;2023-07-31T03:55:05;18.00;98.20
4374;DHT22;2201;51.100;6.814;2023-07-31T03:57:32;18.00;98.20
4374;DHT22;2201;51.100;6.814;2023-07-31T03:59:59;17.90;98.20
4374;DHT22;2201;51.100;6.814;2023-07-31T04:02:27;18.00;98.20
4374;DHT22;2201;51.100;6.814;2023-07-31T04:04:54;18.00;98.20
4374;DHT22;2201;51.100;6.814;2023-07-31T04:07:21;17.90;98.20
4374;DHT22;2201;51.100;6.814;2023-07-31T04:09:47;17.90;98.20
4374;DHT22;2201;51.100;6.814;2023-07-31T04:12:14;17.90;98.20
4374;DHT22;2201;51.100;6.814;2023-07-31T04:14:41;17.90;98.20
4374;DHT22;2201;51.100;6.814;2023-07-31T04:17:08;18.00;98.20
4374;DHT22;2201;51.100;6.814;2023-07-31T04:19:36;18.00;98.20
4374;DHT22;2201;51.100;6.814;2023-07-31T04:22:03;18.00;98.20
4374;DHT22;2201;51.100;6.814;2023-07-31T04:24:30;18.00;98.20
4374;DHT22;2201;51.100;6.814;2023-07-31T04:26:57;18.00;98.20
4374;DHT22;2201;51.100;6.814;2023-07-31T04:29:24;18.00;98.20
4374;DHT22;2201;51.100;6.814;2023-07-31T04:31:50;18.00;98.20
4374;DHT22;2201;51.100;6.814;2023-07-31T04:34:17;18.00;98.20
4374;DHT22;2201;51.100;6.814;2023-07-31T04:36:46;18.00;98.20
4374;DHT22;2201;51.100;6.814;2023-07-31T04:39:12;18.00;98.20
4374;DHT22;2201;51.100;6.814;2023-07-31T04:41:39;18.00;98.20
4374;DHT22;2201;51.100;6.814;2023-07-31T04:44:06;18.00;98.20
4374;DHT22;2201;51.100;6.814;2023-07-31T04:46:33;18.00;98.20
4374;DHT22;2201;51.100;6.814;2023-07-31T04:49:01;18.00;98.20
4374;DHT22;2201;51.100;6.814;2023-07-31T04:51:28;18.00;98.20
4374;DHT22;2201;51.100;6.814;2023-07-31T04:53:56;18.00;98.20
4374;DHT22;2201;51.100;6.814;2023-07-31T04:56:23;18.00;98.20
4374;DHT22;2201;51.100;6.814;2023-07-31T04:58:50;18.10;98.20
4374;DHT22;2201;51.100;6.814;2023-07-31T05:01:17;18.10;98.20
4374;DHT22;2201;51.100;6.814;2023-07-31T05:03:44;18.20;98.20
4374;DHT22;2201;51.100;6.814;2023-07-31T05:06:10;18.20;98.20
4374;DHT22;2201;51.100;6.814;2023-07-31T05:08:37;18.20;98.20
4374;DHT22;2201;51.100;6.814;2023-07-31T05:11:05;18.30;98.20
4374;DHT22;2201;51.100;6.814;2023-07-31T05:13:32;18.30;98.20
4374;DHT22;2201;51.100;6.814;2023-07-31T05:15:59;18.40;98.20
4374;DHT22;2201;51.100;6.814;2023-07-31T05:18:26;18.40;98.20
4374;DHT22;2201;51.100;6.814;2023-07-31T05:21:02;18.40;98.20
4374;DHT22;2201;51.100;6.814;2023-07-31T05:23:29;18.40;98.20
4374;DHT22;2201;51.100;6.814;2023-07-31T05:26:03;18.50;98.20
4374;DHT22;2201;51.100;6.814;2023-07-31T05:28:31;18.50;98.20
4374;DHT22;2201;51.100;6.814;2023-07-31T05:30:59;18.50;98.20
4374;DHT22;2201;51.100;6.814;2023-07-31T05:33:26;18.50;98.20
4374;DHT22;2201;51.100;6.814;2023-07-31T05:35:53;18.60;98.20
4374;DHT22;2201;51.100;6.814;2023-07-31T05:38:20;18.60;98.20
4374;DHT22;2201;51.100;6.814;2023-07-31T05:40:47;18.60;98.20
4374;DHT22;2201;51.100;6.814;2023-07-31T05:43:17;18.70;98.20
4374;DHT22;2201;51.100;6.814;2023-07-31T05:45:45;18.70;98.20
4374;DHT22;2201;51.100;6.814;2023-07-31T05:48:12;18.70;98.20
4374;DHT22;2201;51.100;6.814;2023-07-31T05:50:39;18.70;98.20
4374;DHT22;2201;51.100;6.814;2023-07-31T05:53:06;18.70;98.20
4374;DHT22;2201;51.100;6.814;2023-07-31T05:55:34;18.70;98.20
4374;DHT22;2201;51.100;6.814;2023-07-31T05:58:00;18.70;98.20
4374;DHT22;2201;51.100;6.814;2023-07-31T06:00:27;18.70;98.20
4374;DHT22;2201;51.100;6.814;2023-07-31T06:02:56;18.70;98.20
4374;DHT22;2201;51.100;6.814;2023-07-31T06:05:34;18.60;98.20
4374;DHT22;2201;51.100;6.814;2023-07-31T06:08:14;18.60;98.20
4374;DHT22;2201;51.100;6.814;2023-07-31T06:10:44;18.60;98.20
4374;DHT22;2201;51.100;6.814;2023-07-31T06:13:43;18.50;98.20
4374;DHT22;2201;51.100;6.814;2023-07-31T06:16:12;18.50;98.20
4374;DHT22;2201;51.100;6.814;2023-07-31T06:18:43;18.40;98.20
4374;DHT22;2201;51.100;6.814;2023-07-31T06:21:26;18.40;98.20
4374;DHT22;2201;51.100;6.814;2023-07-31T06:23:55;18.40;98.20
4374;DHT22;2201;51.100;6.814;2023-07-31T06:26:22;18.40;98.20
4374;DHT22;2201;51.100;6.814;2023-07-31T06:28:49;18.40;98.20
4374;DHT22;2201;51.100;6.814;2023-07-31T06:31:16;18.40;98.20
4374;DHT22;2201;51.100;6.814;2023-07-31T06:33:47;18.40;98.20
4374;DHT22;2201;51.100;6.814;2023-07-31T06:36:14;18.50;98.20
4374;DHT22;2201;51.100;6.814;2023-07-31T06:38:41;18.50;98.20
4374;DHT22;2201;51.100;6.814;2023-07-31T06:41:08;18.50;98.20
4374;DHT22;2201;51.100;6.814;2023-07-31T06:43:35;18.60;98.20
4374;DHT22;2201;51.100;6.814;2023-07-31T06:46:04;18.60;98.20
4374;DHT22;2201;51.100;6.814;2023-07-31T06:48:31;18.70;98.20
4374;DHT22;2201;51.100;6.814;2023-07-31T06:51:00;18.70;98.20
4374;DHT22;2201;51.100;6.814;2023-07-31T06:53:28;18.70;98.20
4374;DHT22;2201;51.100;6.814;2023-07-31T06:55:55;18.80;98.20
4374;DHT22;2201;51.100;6.814;2023-07-31T06:58:22;18.80;98.20
4374;DHT22;2201;51.100;6.814;2023-07-31T07:00:48;18.80;98.20
4374;DHT22;2201;51.100;6.814;2023-07-31T07:03:17;18.90;98.20
4374;DHT22;2201;51.100;6.814;2023-07-31T07:05:44;18.90;98.20
4374;DHT22;2201;51.100;6.814;2023-07-31T07:08:12;18.90;98.20
4374;DHT22;2201;51.100;6.814;2023-07-31T07:10:39;18.90;98.20
4374;DHT22;2201;51.100;6.814;2023-07-31T07:13:06;18.90;98.20
4374;DHT22;2201;51.100;6.814;2023-07-31T07:15:33;19.00;98.20
4374;DHT22;2201;51.100;6.814;2023-07-31T07:18:00;19.00;98.20
4374;DHT22;2201;51.100;6.814;2023-07-31T07:20:26;19.00;98.20
4374;DHT22;2201;51.100;6.814;2023-07-31T07:22:53;19.00;98.20
4374;DHT22;2201;51.100;6.814;2023-07-31T07:25:21;19.00;98.20
4374;DHT22;2201;51.100;6.814;2023-07-31T07:27:48;19.00;98.20
4374;DHT22;2201;51.100;6.814;2023-07-31T07:30:29;19.00;98.20
4374;DHT22;2201;51.100;6.814;2023-07-31T07:32:56;19.00;98.20
4374;DHT22;2201;51.100;6.814;2023-07-31T07:35:23;18.90;98.20
4374;DHT22;2201;51.100;6.814;2023-07-31T07:37:54;18.80;98.20
4374;DHT22;2201;51.100;6.814;2023-07-31T07:40:23;18.80;98.20
4374;DHT22;2201;51.100;6.814;2023-07-31T07:42:50;18.80;98.20
4374;DHT22;2201;51.100;6.814;2023-07-31T07:45:20;18.70;98.20
4374;DHT22;2201;51.100;6.814;2023-07-31T07:47:47;18.70;98.20
4374;DHT22;2201;51.100;6.814;2023-07-31T07:50:14;18.70;98.20
4374;DHT22;2201;51.100;6.814;2023-07-31T07:52:40;18.70;98.20
4374;DHT22;2201;51.100;6.814;2023-07-31T07:55:18;18.70;98.20
4374;DHT22;2201;51.100;6.814;2023-07-31T07:57:48;18.70;98.20
4374;DHT22;2201;51.100;6.814;2023-07-31T08:00:21;18.70;98.20
4374;DHT22;2201;51.100;6.814;2023-07-31T08:02:48;18.70;98.20
4374;DHT22;2201;51.100;6.814;2023-07-31T08:05:17;18.70;98.20
4374;DHT22;2201;51.100;6.814;2023-07-31T08:07:44;18.70;98.20
4374;DHT22;2201;51.100;6.814;2023-07-31T08:10:11;18.60;98.20
4374;DHT22;2201;51.100;6.814;2023-07-31T08:12:38;18.60;98.20
4374;DHT22;2201;51.100;6.814;2023-07-31T08:15:08;18.50;98.20
4374;DHT22;2201;51.100;6.814;2023-07-31T08:17:35;18.50;98.20
4374;DHT22;2201;51.100;6.814;2023-07-31T08:20:02;18.50;98.20
4374;DHT22;2201;51.100;6.814;2023-07-31T08:22:30;18.60;98.20
4374;DHT22;2201;51.100;6.814;2023-07-31T08:24:58;18.60;98.20
4374;DHT22;2201;51.100;6.814;2023-07-31T08:27:25;18.60;98.20
4374;DHT22;2201;51.100;6.814;2023-07-31T08:29:52;18.60;98.20
4374;DHT22;2201;51.100;6.814;2023-07-31T08:32:20;18.70;98.20
4374;DHT22;2201;51.100;6.814;2023-07-31T08:34:47;18.80;98.20
4374;DHT22;2201;51.100;6.814;2023-07-31T08:37:15;18.90;98.20
4374;DHT22;2201;51.100;6.814;2023-07-31T08:39:42;19.00;98.20
4374;DHT22;2201;51.100;6.814;2023-07-31T08:42:09;19.10;98.20
4374;DHT22;2201;51.100;6.814;2023-07-31T08:44:36;19.20;98.20
4374;DHT22;2201;51.100;6.814;2023-07-31T08:47:04;19.30;98.20
4374;DHT22;2201;51.100;6.814;2023-07-31T08:49:34;19.30;98.20
4374;DHT22;2201;51.100;6.814;2023-07-31T08:52:01;19.40;98.20
4374;DHT22;2201;51.100;6.814;2023-07-31T08:54:29;19.50;98.20
4374;DHT22;2201;51.100;6.814;2023-07-31T08:56:58;19.50;98.20
4374;DHT22;2201;51.100;6.814;2023-07-31T08:59:27;19.50;98.20
4374;DHT22;2201;51.100;6.814;2023-07-31T09:01:56;19.50;98.20
4374;DHT22;2201;51.100;6.814;2023-07-31T09:04:25;19.50;98.20
4374;DHT22;2201;51.100;6.814;2023-07-31T09:06:57;19.50;98.20
4374;DHT22;2201;51.100;6.814;2023-07-31T09:09:26;19.50;98.20
4374;DHT22;2201;51.100;6.814;2023-07-31T09:11:53;19.40;98.20
4374;DHT22;2201;51.100;6.814;2023-07-31T09:14:21;19.40;98.20
4374;DHT22;2201;51.100;6.814;2023-07-31T09:16:52;19.30;98.20
4374;DHT22;2201;51.100;6.814;2023-07-31T09:19:28;19.30;98.20
4374;DHT22;2201;51.100;6.814;2023-07-31T09:21:57;19.20;98.20
4374;DHT22;2201;51.100;6.814;2023-07-31T09:24:29;19.20;98.20
4374;DHT22;2201;51.100;6.814;2023-07-31T09:26:58;19.20;98.20
4374;DHT22;2201;51.100;6.814;2023-07-31T09:29:26;19.20;98.20
4374;DHT22;2201;51.100;6.814;2023-07-31T09:31:54;19.30;98.20
4374;DHT22;2201;51.100;6.814;2023-07-31T09:34:29;19.40;98.20
4374;DHT22;2201;51.100;6.814;2023-07-31T09:37:01;19.50;98.20
4374;DHT22;2201;51.100;6.814;2023-07-31T09:39:29;19.60;98.20
4374;DHT22;2201;51.100;6.814;2023-07-31T09:41:57;19.70;98.20
4374;DHT22;2201;51.100;6.814;2023-07-31T09:44:37;19.70;98.20
4374;DHT22;2201;51.100;6.814;2023-07-31T09:47:06;19.70;98.20
4374;DHT22;2201;51.100;6.814;2023-07-31T09:49:33;19.70;98.20
4374;DHT22;2201;51.100;6.814;2023-07-31T09:52:11;19.80;98.20
4374;DHT22;2201;51.100;6.814;2023-07-31T09:54:39;19.70;98.20
4374;DHT22;2201;51.100;6.814;2023-07-31T09:57:06;19.80;98.20
4374;DHT22;2201;51.100;6.814;2023-07-31T09:59:35;19.80;98.20
4374;DHT22;2201;51.100;6.814;2023-07-31T10:02:03;19.90;98.20
4374;DHT22;2201;51.100;6.814;2023-07-31T10:07:07;20.00;98.20
4374;DHT22;2201;51.100;6.814;2023-07-31T10:09:44;20.10;98.20
4374;DHT22;2201;51.100;6.814;2023-07-31T10:12:14;20.20;98.20
4374;DHT22;2201;51.100;6.814;2023-07-31T10:14:43;20.20;98.20
4374;DHT22;2201;51.100;6.814;2023-07-31T10:17:11;20.20;98.20
4374;DHT22;2201;51.100;6.814;2023-07-31T10:19:39;20.20;98.20
4374;DHT22;2201;51.100;6.814;2023-07-31T10:22:08;20.20;98.20
4374;DHT22;2201;51.100;6.814;2023-07-31T10:24:39;20.20;98.20
4374;DHT22;2201;51.100;6.814;2023-07-31T10:27:07;20.20;98.20
4374;DHT22;2201;51.100;6.814;2023-07-31T10:29:35;20.20;98.20
4374;DHT22;2201;51.100;6.814;2023-07-31T10:32:05;20.30;98.20
4374;DHT22;2201;51.100;6.814;2023-07-31T10:34:36;20.40;98.20
4374;DHT22;2201;51.100;6.814;2023-07-31T10:37:28;20.50;98.20
4374;DHT22;2201;51.100;6.814;2023-07-31T10:40:00;20.60;98.20
4374;DHT22;2201;51.100;6.814;2023-07-31T10:42:29;20.90;98.20
4374;DHT22;2201;51.100;6.814;2023-07-31T10:44:58;21.10;98.20
4374;DHT22;2201;51.100;6.814;2023-07-31T10:47:25;21.20;98.20
4374;DHT22;2201;51.100;6.814;2023-07-31T10:49:52;21.30;98.20
4374;DHT22;2201;51.100;6.814;2023-07-31T10:52:20;21.30;98.20
4374;DHT22;2201;51.100;6.814;2023-07-31T10:54:50;21.30;98.20
4374;DHT22;2201;51.100;6.814;2023-07-31T10:57:37;21.30;98.20
4374;DHT22;2201;51.100;6.814;2023-07-31T11:00:18;21.40;98.20
4374;DHT22;2201;51.100;6.814;2023-07-31T11:02:56;21.50;98.20
4374;DHT22;2201;51.100;6.814;2023-07-31T11:05:41;21.60;98.20
4374;DHT22;2201;51.100;6.814;2023-07-31T11:08:13;21.70;98.20
4374;DHT22;2201;51.100;6.814;2023-07-31T11:10:42;21.80;98.20
4374;DHT22;2201;51.100;6.814;2023-07-31T11:13:09;21.80;98.20
4374;DHT22;2201;51.100;6.814;2023-07-31T11:15:36;21.90;98.20
4374;DHT22;2201;51.100;6.814;2023-07-31T11:18:03;22.10;98.20
4374;DHT22;2201;51.100;6.814;2023-07-31T11:20:31;22.20;98.20
4374;DHT22;2201;51.100;6.814;2023-07-31T11:23:00;22.30;98.20
4374;DHT22;2201;51.100;6.814;2023-07-31T11:25:29;22.30;98.20
4374;DHT22;2201;51.100;6.814;2023-07-31T11:28:01;22.40;98.20
4374;DHT22;2201;51.100;6.814;2023-07-31T11:30:28;22.30;98.20
4374;DHT22;2201;51.100;6.814;2023-07-31T11:32:55;22.10;98.20
4374;DHT22;2201;51.100;6.814;2023-07-31T11:35:22;22.10;98.20
4374;DHT22;2201;51.100;6.814;2023-07-31T11:37:49;22.10;98.20
4374;DHT22;2201;51.100;6.814;2023-07-31T11:40:16;22.10;98.20
4374;DHT22;2201;51.100;6.814;2023-07-31T11:42:43;22.20;98.20
4374;DHT22;2201;51.100;6.814;2023-07-31T11:45:12;22.20;98.20
4374;DHT22;2201;51.100;6.814;2023-07-31T11:47:39;22.20;98.20
4374;DHT22;2201;51.100;6.814;2023-07-31T11:50:10;22.20;98.20
4374;DHT22;2201;51.100;6.814;2023-07-31T11:52:40;22.20;98.20
4374;DHT22;2201;51.100;6.814;2023-07-31T11:55:09;22.10;98.20
4374;DHT22;2201;51.100;6.814;2023-07-31T11:57:37;22.10;98.20
4374;DHT22;2201;51.100;6.814;2023-07-31T12:00:08;22.00;98.20
4374;DHT22;2201;51.100;6.814;2023-07-31T12:02:38;21.90;98.20
4374;DHT22;2201;51.100;6.814;2023-07-31T12:05:05;21.80;98.20
4374;DHT22;2201;51.100;6.814;2023-07-31T12:07:47;21.80;98.20
4374;DHT22;2201;51.100;6.814;2023-07-31T12:10:24;21.70;98.20
4374;DHT22;2201;51.100;6.814;2023-07-31T12:13:03;21.60;98.20
4374;DHT22;2201;51.100;6.814;2023-07-31T12:15:34;21.50;98.20
4374;DHT22;2201;51.100;6.814;2023-07-31T12:18:06;21.50;98.20
4374;DHT22;2201;51.100;6.814;2023-07-31T12:20:34;21.50;98.20
4374;DHT22;2201;51.100;6.814;2023-07-31T12:23:01;21.60;98.20
4374;DHT22;2201;51.100;6.814;2023-07-31T12:25:32;21.70;98.20
4374;DHT22;2201;51.100;6.814;2023-07-31T12:28:05;21.90;98.20
4374;DHT22;2201;51.100;6.814;2023-07-31T12:30:34;22.00;98.20
4374;DHT22;2201;51.100;6.814;2023-07-31T12:33:05;22.10;98.20
4374;DHT22;2201;51.100;6.814;2023-07-31T12:35:40;22.10;98.20
4374;DHT22;2201;51.100;6.814;2023-07-31T12:38:07;22.10;98.20
4374;DHT22;2201;51.100;6.814;2023-07-31T12:40:37;22.10;98.20
4374;DHT22;2201;51.100;6.814;2023-07-31T12:43:04;22.10;98.20
4374;DHT22;2201;51.100;6.814;2023-07-31T12:45:31;22.00;98.20
4374;DHT22;2201;51.100;6.814;2023-07-31T12:47:58;21.90;98.20
4374;DHT22;2201;51.100;6.814;2023-07-31T12:50:26;22.00;98.20
4374;DHT22;2201;51.100;6.814;2023-07-31T12:52:54;22.10;98.20
4374;DHT22;2201;51.100;6.814;2023-07-31T12:55:21;22.10;98.20
4374;DHT22;2201;51.100;6.814;2023-07-31T12:57:48;22.10;98.20
4374;DHT22;2201;51.100;6.814;2023-07-31T13:00:19;22.20;98.20
4374;DHT22;2201;51.100;6.814;2023-07-31T13:02:46;22.20;98.20
4374;DHT22;2201;51.100;6.814;2023-07-31T13:05:13;22.30;98.20
4374;DHT22;2201;51.100;6.814;2023-07-31T13:07:41;22.30;98.20
4374;DHT22;2201;51.100;6.814;2023-07-31T13:10:09;22.40;98.20
4374;DHT22;2201;51.100;6.814;2023-07-31T13:12:35;22.40;98.20
4374;DHT22;2201;51.100;6.814;2023-07-31T13:15:03;22.30;98.20
4374;DHT22;2201;51.100;6.814;2023-07-31T13:17:30;22.20;98.20
4374;DHT22;2201;51.100;6.814;2023-07-31T13:19:56;22.10;98.20
4374;DHT22;2201;51.100;6.814;2023-07-31T13:22:23;22.10;98.20
4374;DHT22;2201;51.100;6.814;2023-07-31T13:24:52;22.10;98.20
4374;DHT22;2201;51.100;6.814;2023-07-31T13:27:19;22.10;98.20
4374;DHT22;2201;51.100;6.814;2023-07-31T13:29:47;22.10;98.20
4374;DHT22;2201;51.100;6.814;2023-07-31T13:32:14;22.20;98.20
4374;DHT22;2201;51.100;6.814;2023-07-31T13:34:40;22.30;98.20
4374;DHT22;2201;51.100;6.814;2023-07-31T13:37:10;22.60;98.20
4374;DHT22;2201;51.100;6.814;2023-07-31T13:39:37;22.80;98.20
4374;DHT22;2201;51.100;6.814;2023-07-31T13:42:06;23.00;98.20
4374;DHT22;2201;51.100;6.814;2023-07-31T13:44:33;23.10;98.20
4374;DHT22;2201;51.100;6.814;2023-07-31T13:47:00;23.10;98.20
4374;DHT22;2201;51.100;6.814;2023-07-31T13:49:27;23.10;98.20
4374;DHT22;2201;51.100;6.814;2023-07-31T13:51:54;23.20;98.20
4374;DHT22;2201;51.100;6.814;2023-07-31T13:54:22;23.40;98.20
4374;DHT22;2201;51.100;6.814;2023-07-31T13:56:49;23.50;98.20
4374;DHT22;2201;51.100;6.814;2023-07-31T13:59:17;23.60;98.20
4374;DHT22;2201;51.100;6.814;2023-07-31T14:01:45;23.70;98.20
4374;DHT22;2201;51.100;6.814;2023-07-31T14:04:11;23.70;98.20
4374;DHT22;2201;51.100;6.814;2023-07-31T14:06:38;23.60;98.20
4374;DHT22;2201;51.100;6.814;2023-07-31T14:09:05;23.60;98.20
4374;DHT22;2201;51.100;6.814;2023-07-31T14:11:33;23.50;98.20
4374;DHT22;2201;51.100;6.814;2023-07-31T14:14:00;23.30;98.20
4374;DHT22;2201;51.100;6.814;2023-07-31T14:16:28;23.20;98.20
4374;DHT22;2201;51.100;6.814;2023-07-31T14:18:55;23.00;98.20
4374;DHT22;2201;51.100;6.814;2023-07-31T14:21:24;22.80;98.20
4374;DHT22;2201;51.100;6.814;2023-07-31T14:23:51;22.70;98.20
4374;DHT22;2201;51.100;6.814;2023-07-31T14:26:18;22.50;98.20
4374;DHT22;2201;51.100;6.814;2023-07-31T14:28:45;22.50;98.20
4374;DHT22;2201;51.100;6.814;2023-07-31T14:31:12;22.40;98.20
4374;DHT22;2201;51.100;6.814;2023-07-31T14:33:41;22.40;98.20
4374;DHT22;2201;51.100;6.814;2023-07-31T14:36:09;22.30;98.20
4374;DHT22;2201;51.100;6.814;2023-07-31T14:38:36;22.40;98.20
4374;DHT22;2201;51.100;6.814;2023-07-31T14:41:03;22.40;98.20
4374;DHT22;2201;51.100;6.814;2023-07-31T14:43:30;22.40;98.20
4374;DHT22;2201;51.100;6.814;2023-07-31T14:45:58;22.50;98.20
4374;DHT22;2201;51.100;6.814;2023-07-31T14:48:26;22.60;98.20
4374;DHT22;2201;51.100;6.814;2023-07-31T14:50:56;22.70;98.20
4374;DHT22;2201;51.100;6.814;2023-07-31T14:53:38;22.70;98.20
4374;DHT22;2201;51.100;6.814;2023-07-31T14:56:12;22.80;98.20
4374;DHT22;2201;51.100;6.814;2023-07-31T14:58:40;22.80;98.20
4374;DHT22;2201;51.100;6.814;2023-07-31T15:01:07;22.80;98.20
4374;DHT22;2201;51.100;6.814;2023-07-31T15:03:34;22.80;98.20
4374;DHT22;2201;51.100;6.814;2023-07-31T15:06:03;22.70;98.20
4374;DHT22;2201;51.100;6.814;2023-07-31T15:08:32;22.70;98.20
4374;DHT22;2201;51.100;6.814;2023-07-31T15:10:59;22.60;98.20
4374;DHT22;2201;51.100;6.814;2023-07-31T15:13:26;22.60;98.20
4374;DHT22;2201;51.100;6.814;2023-07-31T15:15:53;22.60;98.20
4374;DHT22;2201;51.100;6.814;2023-07-31T15:18:21;22.60;98.20
4374;DHT22;2201;51.100;6.814;2023-07-31T15:20:49;22.50;98.20
4374;DHT22;2201;51.100;6.814;2023-07-31T15:23:21;22.50;98.20
4374;DHT22;2201;51.100;6.814;2023-07-31T15:25:50;22.40;98.20
4374;DHT22;2201;51.100;6.814;2023-07-31T15:28:26;22.40;98.20
4374;DHT22;2201;51.100;6.814;2023-07-31T15:31:03;22.30;98.20
4374;DHT22;2201;51.100;6.814;2023-07-31T15:33:31;22.20;98.20
4374;DHT22;2201;51.100;6.814;2023-07-31T15:35:59;22.20;98.20
4374;DHT22;2201;51.100;6.814;2023-07-31T15:38:29;22.10;98.20
4374;DHT22;2201;51.100;6.814;2023-07-31T15:40:57;22.10;98.20
4374;DHT22;2201;51.100;6.814;2023-07-31T15:43:25;22.00;98.20
4374;DHT22;2201;51.100;6.814;2023-07-31T15:45:57;21.90;98.20
4374;DHT22;2201;51.100;6.814;2023-07-31T15:48:24;21.90;98.20
4374;DHT22;2201;51.100;6.814;2023-07-31T15:50:53;21.80;98.20
4374;DHT22;2201;51.100;6.814;2023-07-31T15:53:23;21.80;98.20
4374;DHT22;2201;51.100;6.814;2023-07-31T15:55:52;21.80;98.20
4374;DHT22;2201;51.100;6.814;2023-07-31T15:58:23;21.70;98.20
4374;DHT22;2201;51.100;6.814;2023-07-31T16:00:53;21.70;98.20
4374;DHT22;2201;51.100;6.814;2023-07-31T16:03:20;21.70;98.20
4374;DHT22;2201;51.100;6.814;2023-07-31T16:05:48;21.60;98.20
4374;DHT22;2201;51.100;6.814;2023-07-31T16:08:16;21.50;98.20
4374;DHT22;2201;51.100;6.814;2023-07-31T16:10:47;21.50;98.20
4374;DHT22;2201;51.100;6.814;2023-07-31T16:13:16;21.30;98.20